createdAt,value
2023-05-18T00:02:18.994Z,54.11
2023-05-18T00:04:45.771Z,54.20
2023-05-18T00:07:13.061Z,54.25
2023-05-18T00:09:40.924Z,54.57
2023-05-18T00:12:09.029Z,54.41
2023-05-18T00:14:36.244Z,54.67
2023-05-18T00:17:03.059Z,54.51
2023-05-18T00:19:30.061Z,54.25
2023-05-18T00:21:57.167Z,54.48
2023-05-18T00:24:23.940Z,54.26
2023-05-18T00:26:50.354Z,54.60
2023-05-18T00:29:16.812Z,54.73
2023-05-18T00:31:45.109Z,55.17
2023-05-18T00:34:14.248Z,55.70
2023-05-18T00:36:41.267Z,56.08
2023-05-18T00:39:09.193Z,55.22
2023-05-18T00:41:35.899Z,55.13
2023-05-18T00:44:02.320Z,54.99
2023-05-18T00:46:28.826Z,54.91
2023-05-18T00:48:57.383Z,55.28
2023-05-18T00:51:24.832Z,55.10
2023-05-18T00:53:53.357Z,55.41
2023-05-18T00:56:21.399Z,55.45
2023-05-18T00:58:48.033Z,55.48
2023-05-18T01:01:17.629Z,56.30
2023-05-18T01:03:44.156Z,56.13
2023-05-18T01:06:12.787Z,56.15
2023-05-18T01:08:39.307Z,56.67
2023-05-18T01:11:15.040Z,56.35
2023-05-18T01:13:55.983Z,56.54
2023-05-18T01:16:28.314Z,56.46
2023-05-18T01:19:03.006Z,56.73
2023-05-18T01:21:49.613Z,56.38
2023-05-18T01:24:45.459Z,57.00
2023-05-18T01:27:16.329Z,56.67
2023-05-18T01:29:44.696Z,56.82
2023-05-18T01:32:18.323Z,56.84
2023-05-18T01:34:44.793Z,57.07
2023-05-18T01:37:11.431Z,57.43
2023-05-18T01:39:38.505Z,57.33
2023-05-18T01:42:21.228Z,57.70
2023-05-18T01:44:53.881Z,57.61
2023-05-18T01:47:20.604Z,57.72
2023-05-18T01:50:15.736Z,57.96
2023-05-18T01:52:51.918Z,58.08
2023-05-18T01:55:20.652Z,58.09
2023-05-18T01:57:49.594Z,58.08
2023-05-18T02:00:17.835Z,58.57
2023-05-18T02:02:45.508Z,58.82
2023-05-18T02:05:14.850Z,58.98
2023-05-18T02:07:43.943Z,58.92
2023-05-18T02:10:11.304Z,58.99
2023-05-18T02:12:37.724Z,59.07
2023-05-18T02:15:05.588Z,58.71
2023-05-18T02:17:37.944Z,59.20
2023-05-18T02:20:08.281Z,59.14
2023-05-18T02:22:35.382Z,59.55
2023-05-18T02:25:02.571Z,59.59
2023-05-18T02:27:28.998Z,59.51
2023-05-18T02:29:55.428Z,59.84
2023-05-18T02:32:22.000Z,59.97
2023-05-18T02:34:52.707Z,60.28
2023-05-18T02:37:19.459Z,59.73
2023-05-18T02:39:46.131Z,59.40
2023-05-18T02:42:13.645Z,59.57
2023-05-18T02:44:40.048Z,59.56
2023-05-18T02:47:06.507Z,59.92
2023-05-18T02:49:33.411Z,60.18
2023-05-18T02:51:59.827Z,60.72
2023-05-18T02:54:26.327Z,60.13
2023-05-18T02:56:56.756Z,60.05
2023-05-18T02:59:23.264Z,60.53
2023-05-18T03:01:49.992Z,60.43
2023-05-18T03:04:16.968Z,60.30
2023-05-18T03:06:46.232Z,60.08
2023-05-18T03:09:12.837Z,59.96
2023-05-18T03:11:39.271Z,59.75
2023-05-18T03:14:05.919Z,59.94
2023-05-18T03:16:32.529Z,59.49
2023-05-18T03:18:59.436Z,59.66
2023-05-18T03:21:25.971Z,59.63
2023-05-18T03:23:52.348Z,59.31
2023-05-18T03:26:18.743Z,59.24
2023-05-18T03:28:45.154Z,59.05
2023-05-18T03:31:11.841Z,58.90
2023-05-18T03:33:38.352Z,58.90
2023-05-18T03:36:05.041Z,58.83
2023-05-18T03:38:31.553Z,59.15
2023-05-18T03:40:58.110Z,58.82
2023-05-18T03:43:25.898Z,58.87
2023-05-18T03:45:53.142Z,58.84
2023-05-18T03:48:20.130Z,58.50
2023-05-18T03:50:46.564Z,58.40
2023-05-18T03:53:13.270Z,58.89
2023-05-18T03:55:39.767Z,58.83
2023-05-18T03:58:06.186Z,59.10
2023-05-18T04:00:32.588Z,59.23
2023-05-18T04:02:59.029Z,58.88
2023-05-18T04:05:25.829Z,58.57
2023-05-18T04:07:52.244Z,58.92
2023-05-18T04:10:19.596Z,58.93
2023-05-18T04:12:46.053Z,58.78
2023-05-18T04:15:14.580Z,58.80
2023-05-18T04:17:45.601Z,58.47
2023-05-18T04:20:14.713Z,58.33
2023-05-18T04:22:49.262Z,58.19
2023-05-18T04:25:16.233Z,57.96
2023-05-18T04:27:45.239Z,58.19
2023-05-18T04:30:12.613Z,57.96
2023-05-18T04:32:42.590Z,58.49
2023-05-18T04:35:11.036Z,57.74
2023-05-18T04:37:40.266Z,58.55
2023-05-18T04:40:08.748Z,58.41
2023-05-18T04:42:38.146Z,58.58
2023-05-18T04:45:05.889Z,58.50
2023-05-18T04:47:32.848Z,58.82
2023-05-18T04:49:59.288Z,58.42
2023-05-18T04:52:26.169Z,59.11
2023-05-18T04:54:52.831Z,58.79
2023-05-18T04:57:19.267Z,58.97
2023-05-18T04:59:47.271Z,58.89
2023-05-18T05:02:14.374Z,58.88
2023-05-18T05:04:41.862Z,58.87
2023-05-18T05:07:08.308Z,58.56
2023-05-18T05:09:34.757Z,59.24
2023-05-18T05:12:02.072Z,59.18
2023-05-18T05:14:28.500Z,58.92
2023-05-18T05:16:55.059Z,58.97
2023-05-18T05:19:21.556Z,58.53
2023-05-18T05:21:48.355Z,58.67
2023-05-18T05:24:14.776Z,58.52
2023-05-18T05:26:41.179Z,58.63
2023-05-18T05:29:07.589Z,58.01
2023-05-18T05:31:34.670Z,58.74
2023-05-18T05:34:01.146Z,59.45
2023-05-18T05:36:27.525Z,59.48
2023-05-18T05:38:53.918Z,58.92
2023-05-18T05:41:20.416Z,58.90
2023-05-18T05:43:46.782Z,58.87
2023-05-18T05:46:13.178Z,58.49
2023-05-18T05:48:39.678Z,57.76
2023-05-18T05:51:06.156Z,57.37
2023-05-18T05:53:32.824Z,57.19
2023-05-18T05:56:02.262Z,57.15
2023-05-18T05:58:28.619Z,56.99
2023-05-18T06:00:55.291Z,57.04
2023-05-18T06:03:21.912Z,57.05
2023-05-18T06:05:48.439Z,56.49
2023-05-18T06:08:15.771Z,56.79
2023-05-18T06:10:43.087Z,56.87
2023-05-18T06:13:09.545Z,56.78
2023-05-18T06:15:35.942Z,55.94
2023-05-18T06:18:02.372Z,56.51
2023-05-18T06:20:28.845Z,56.34
2023-05-18T06:22:56.411Z,56.37
2023-05-18T06:25:23.095Z,56.80
2023-05-18T06:27:49.938Z,56.45
2023-05-18T06:30:16.899Z,56.31
2023-05-18T06:32:43.363Z,56.82
2023-05-18T06:35:10.106Z,57.09
2023-05-18T06:37:36.514Z,56.87
2023-05-18T06:40:04.737Z,57.50
2023-05-18T06:42:32.661Z,57.08
2023-05-18T06:44:59.329Z,57.01
2023-05-18T06:47:25.822Z,56.85
2023-05-18T06:49:52.236Z,57.15
2023-05-18T06:52:18.590Z,56.67
2023-05-18T06:54:45.143Z,56.88
2023-05-18T06:57:11.621Z,57.54
2023-05-18T06:59:38.056Z,57.49
2023-05-18T07:02:04.711Z,57.46
2023-05-18T07:04:31.488Z,57.04
2023-05-18T07:06:57.897Z,56.97
2023-05-18T07:09:25.463Z,56.52
2023-05-18T07:11:51.881Z,56.54
2023-05-18T07:14:18.299Z,56.31
2023-05-18T07:16:46.979Z,56.61
2023-05-18T07:19:14.843Z,56.87
2023-05-18T07:21:41.474Z,56.42
2023-05-18T07:24:07.980Z,56.78
2023-05-18T07:26:34.398Z,57.10
2023-05-18T07:29:00.884Z,56.43
2023-05-18T07:31:27.868Z,57.01
2023-05-18T07:33:54.350Z,56.19
2023-05-18T07:36:21.033Z,55.96
2023-05-18T07:38:47.519Z,56.91
2023-05-18T07:41:13.948Z,55.86
2023-05-18T07:43:40.382Z,56.14
2023-05-18T07:46:06.746Z,56.66
2023-05-18T07:48:33.108Z,55.93
2023-05-18T07:50:59.509Z,56.68
2023-05-18T07:53:25.993Z,56.29
2023-05-18T07:55:52.470Z,55.86
2023-05-18T07:58:18.819Z,55.95
2023-05-18T08:00:45.270Z,55.77
2023-05-18T08:03:11.820Z,55.75
2023-05-18T08:05:38.431Z,55.37
2023-05-18T08:08:07.010Z,56.28
2023-05-18T08:10:33.722Z,56.45
2023-05-18T08:13:00.173Z,55.70
2023-05-18T08:15:26.572Z,55.94
2023-05-18T08:17:53.005Z,56.09
2023-05-18T08:20:19.487Z,55.87
2023-05-18T08:22:45.952Z,55.71
2023-05-18T08:25:13.452Z,55.57
2023-05-18T08:27:39.973Z,55.06
2023-05-18T08:30:06.988Z,55.73
2023-05-18T08:32:36.813Z,55.28
2023-05-18T08:35:08.227Z,55.26
2023-05-18T08:37:38.123Z,55.26
2023-05-18T08:40:07.908Z,54.91
2023-05-18T08:43:03.828Z,54.45
2023-05-18T08:45:36.140Z,54.71
2023-05-18T08:48:03.347Z,54.06
2023-05-18T08:50:32.511Z,53.75
2023-05-18T08:53:02.098Z,53.75
2023-05-18T08:55:30.170Z,53.67
2023-05-18T08:57:59.912Z,52.84
2023-05-18T09:00:26.837Z,53.36
2023-05-18T09:02:53.542Z,53.00
2023-05-18T09:05:21.135Z,52.81
2023-05-18T09:07:49.625Z,52.67
2023-05-18T09:10:16.232Z,52.98
2023-05-18T09:12:43.817Z,52.44
2023-05-18T09:15:11.487Z,51.48
2023-05-18T09:17:37.955Z,52.05
2023-05-18T09:20:07.894Z,52.01
2023-05-18T09:22:40.338Z,52.27
2023-05-18T09:25:10.733Z,52.82
2023-05-18T09:27:38.147Z,52.77
2023-05-18T09:30:05.148Z,52.58
2023-05-18T09:32:34.699Z,52.55
2023-05-18T09:35:05.420Z,52.16
2023-05-18T09:37:33.018Z,51.70
2023-05-18T09:40:01.355Z,51.59
2023-05-18T09:42:41.361Z,51.58
2023-05-18T09:45:19.561Z,51.79
2023-05-18T09:47:46.476Z,51.81
2023-05-18T09:50:13.276Z,51.43
2023-05-18T09:52:44.916Z,51.67
2023-05-18T09:55:12.667Z,51.07
2023-05-18T09:57:47.226Z,52.15
2023-05-18T10:00:19.369Z,51.62
2023-05-18T10:02:52.584Z,51.82
2023-05-18T10:05:23.754Z,51.65
2023-05-18T10:07:54.952Z,51.92
2023-05-18T10:10:23.523Z,51.73
2023-05-18T10:12:54.556Z,51.66
2023-05-18T10:15:23.461Z,51.90
2023-05-18T10:17:55.954Z,51.72
2023-05-18T10:20:29.601Z,51.44
2023-05-18T10:23:00.740Z,51.13
2023-05-18T10:25:28.040Z,51.65
2023-05-18T10:28:01.084Z,51.79
2023-05-18T10:30:28.175Z,51.02
2023-05-18T10:32:57.036Z,51.32
2023-05-18T10:35:25.995Z,51.15
2023-05-18T10:37:55.003Z,50.35
2023-05-18T10:40:22.842Z,50.36
2023-05-18T10:42:51.938Z,51.06
2023-05-18T10:45:18.758Z,51.02
2023-05-18T10:47:45.376Z,50.82
2023-05-18T10:50:12.749Z,50.90
2023-05-18T10:52:41.330Z,50.63
2023-05-18T10:55:08.787Z,50.58
2023-05-18T10:57:42.201Z,50.52
2023-05-18T11:00:10.180Z,50.28
2023-05-18T11:02:42.804Z,50.47
2023-05-18T11:05:10.655Z,50.47
2023-05-18T11:07:37.991Z,49.88
2023-05-18T11:10:09.764Z,50.17
2023-05-18T11:12:38.199Z,50.06
2023-05-18T11:15:05.928Z,49.72
2023-05-18T11:17:32.525Z,49.63
2023-05-18T11:20:07.985Z,49.35
2023-05-18T11:22:54.029Z,48.72
2023-05-18T11:25:43.610Z,49.13
2023-05-18T11:28:14.903Z,48.75
2023-05-18T11:30:41.198Z,49.34
2023-05-18T11:33:08.789Z,48.65
2023-05-18T11:35:54.220Z,48.98
2023-05-18T11:38:20.628Z,49.00
2023-05-18T11:40:48.608Z,48.99
2023-05-18T11:43:22.488Z,48.54
2023-05-18T11:45:59.296Z,49.30
2023-05-18T11:48:27.804Z,48.43
2023-05-18T11:50:54.972Z,48.71
2023-05-18T11:53:26.142Z,48.41
2023-05-18T11:55:56.696Z,48.07
2023-05-18T11:58:26.418Z,48.65
2023-05-18T12:00:54.350Z,48.51
2023-05-18T12:03:26.067Z,47.86
2023-05-18T12:05:53.246Z,47.78
2023-05-18T12:08:20.438Z,49.12
2023-05-18T12:10:49.540Z,48.42
2023-05-18T12:13:17.518Z,47.99
2023-05-18T12:15:44.672Z,47.50
2023-05-18T12:18:11.485Z,47.72
2023-05-18T12:20:41.231Z,47.25
2023-05-18T12:23:07.737Z,47.32
2023-05-18T12:25:34.212Z,47.25
2023-05-18T12:28:01.287Z,47.01
2023-05-18T12:30:35.817Z,47.30
2023-05-18T12:33:03.478Z,47.07
2023-05-18T12:35:30.777Z,47.00
2023-05-18T12:38:00.468Z,46.62
2023-05-18T12:40:28.382Z,46.58
2023-05-18T12:42:56.695Z,46.92
2023-05-18T12:45:25.803Z,47.27
2023-05-18T12:47:54.523Z,47.23
2023-05-18T12:50:22.412Z,47.28
2023-05-18T12:52:50.211Z,46.92
2023-05-18T12:55:25.182Z,47.00
2023-05-18T12:58:05.315Z,47.13
2023-05-18T13:00:36.100Z,47.44
2023-05-18T13:03:22.013Z,47.33
2023-05-18T13:06:06.230Z,46.84
2023-05-18T13:08:34.287Z,47.38
2023-05-18T13:11:12.797Z,46.94
2023-05-18T13:14:07.482Z,46.98
2023-05-18T13:16:37.700Z,46.61
2023-05-18T13:19:07.105Z,46.21
2023-05-18T13:21:35.012Z,46.39
2023-05-18T13:24:03.101Z,46.22
2023-05-18T13:26:29.572Z,46.52
2023-05-18T13:28:57.167Z,46.98
2023-05-18T13:31:24.866Z,46.66
2023-05-18T13:33:51.692Z,46.90
2023-05-18T13:36:18.535Z,47.17
2023-05-18T13:38:44.970Z,48.25
2023-05-18T13:41:12.328Z,49.31
2023-05-18T13:43:38.767Z,47.94
2023-05-18T13:46:05.199Z,47.23
2023-05-18T13:48:31.805Z,46.18
2023-05-18T13:50:58.185Z,46.23
2023-05-18T13:53:25.767Z,45.78
2023-05-18T13:55:52.143Z,46.00
2023-05-18T13:58:19.367Z,45.85
2023-05-18T14:00:46.736Z,46.22
2023-05-18T14:03:15.163Z,46.49
2023-05-18T14:05:41.868Z,46.45
2023-05-18T14:08:08.325Z,46.26
2023-05-18T14:10:34.787Z,46.23
2023-05-18T14:13:01.181Z,46.57
2023-05-18T14:15:27.533Z,46.42
2023-05-18T14:17:53.973Z,46.54
2023-05-18T14:20:20.460Z,46.81
2023-05-18T14:22:46.922Z,46.32
2023-05-18T14:25:13.312Z,47.00
2023-05-18T14:27:39.696Z,47.03
2023-05-18T14:30:06.737Z,46.86
2023-05-18T14:32:33.281Z,46.88
2023-05-18T14:34:59.905Z,46.68
2023-05-18T14:37:26.354Z,46.74
2023-05-18T14:39:52.826Z,46.50
2023-05-18T14:42:19.253Z,47.30
2023-05-18T14:44:45.725Z,46.86
2023-05-18T14:47:12.394Z,46.60
2023-05-18T14:49:38.867Z,47.13
2023-05-18T14:52:05.781Z,46.78
2023-05-18T14:54:32.160Z,46.47
2023-05-18T14:56:59.609Z,46.66
2023-05-18T14:59:26.254Z,47.29
2023-05-18T15:01:52.676Z,47.41
2023-05-18T15:04:21.604Z,47.43
2023-05-18T15:06:49.417Z,47.63
2023-05-18T15:09:15.885Z,49.22
2023-05-18T15:11:42.272Z,46.82
2023-05-18T15:14:08.701Z,46.52
2023-05-18T15:16:35.709Z,46.63
2023-05-18T15:19:02.544Z,46.42
2023-05-18T15:21:28.959Z,46.42
2023-05-18T15:23:55.327Z,46.43
2023-05-18T15:26:22.141Z,46.57
2023-05-18T15:28:49.229Z,46.93
2023-05-18T15:31:15.699Z,47.34
2023-05-18T15:33:43.497Z,47.23
2023-05-18T15:36:09.964Z,47.07
2023-05-18T15:38:36.359Z,46.85
2023-05-18T15:41:02.756Z,47.44
2023-05-18T15:43:30.394Z,47.42
2023-05-18T15:45:57.866Z,47.22
2023-05-18T15:48:24.430Z,47.40
2023-05-18T15:50:50.856Z,47.11
2023-05-18T15:53:17.304Z,47.02
2023-05-18T15:55:43.657Z,46.67
2023-05-18T15:58:10.062Z,47.05
2023-05-18T16:00:36.445Z,46.92
2023-05-18T16:03:02.910Z,47.30
2023-05-18T16:05:29.563Z,46.88
2023-05-18T16:07:56.007Z,47.24
2023-05-18T16:10:23.349Z,47.16
2023-05-18T16:12:49.723Z,46.72
2023-05-18T16:15:16.249Z,46.90
2023-05-18T16:17:42.695Z,47.52
2023-05-18T16:20:09.574Z,47.11
2023-05-18T16:22:35.945Z,46.98
2023-05-18T16:25:02.352Z,47.40
2023-05-18T16:27:28.754Z,46.81
2023-05-18T16:29:55.145Z,47.07
2023-05-18T16:32:21.683Z,46.52
2023-05-18T16:34:48.079Z,47.22
2023-05-18T16:37:14.713Z,47.33
2023-05-18T16:39:41.113Z,47.43
2023-05-18T16:42:07.717Z,47.28
2023-05-18T16:44:35.271Z,47.56
2023-05-18T16:47:01.934Z,47.86
2023-05-18T16:49:28.322Z,47.91
2023-05-18T16:51:54.792Z,47.38
2023-05-18T16:54:21.384Z,48.04
2023-05-18T16:56:47.784Z,47.67
2023-05-18T16:59:14.144Z,47.82
2023-05-18T17:01:40.579Z,48.07
2023-05-18T17:04:07.144Z,47.91
2023-05-18T17:06:33.617Z,48.27
2023-05-18T17:09:00.098Z,47.78
2023-05-18T17:11:27.443Z,48.47
2023-05-18T17:13:54.297Z,48.35
2023-05-18T17:16:22.058Z,48.27
2023-05-18T17:18:49.072Z,48.27
2023-05-18T17:21:16.111Z,48.73
2023-05-18T17:23:42.711Z,48.62
2023-05-18T17:26:09.224Z,48.26
2023-05-18T17:28:35.907Z,48.26
2023-05-18T17:31:02.485Z,48.78
2023-05-18T17:33:28.948Z,48.44
2023-05-18T17:35:55.711Z,48.25
2023-05-18T17:38:22.614Z,48.93
2023-05-18T17:40:49.178Z,48.40
2023-05-18T17:43:15.633Z,48.62
2023-05-18T17:45:42.172Z,48.88
2023-05-18T17:48:08.793Z,48.58
2023-05-18T17:50:37.532Z,48.70
2023-05-18T17:53:04.797Z,48.68
2023-05-18T17:55:31.375Z,48.59
2023-05-18T17:57:59.529Z,49.15
2023-05-18T18:00:26.080Z,49.50
2023-05-18T18:02:52.557Z,50.02
2023-05-18T18:05:18.948Z,50.18
2023-05-18T18:07:45.431Z,50.33
2023-05-18T18:10:11.949Z,50.35
2023-05-18T18:12:38.384Z,50.54
2023-05-18T18:15:05.110Z,50.79
2023-05-18T18:17:31.757Z,51.02
2023-05-18T18:19:58.550Z,50.77
2023-05-18T18:22:24.994Z,50.60
2023-05-18T18:24:51.440Z,50.40
2023-05-18T18:27:19.707Z,50.62
2023-05-18T18:29:46.219Z,50.64
2023-05-18T18:32:12.648Z,50.41
2023-05-18T18:34:39.046Z,50.60
2023-05-18T18:37:05.601Z,50.57
2023-05-18T18:39:31.999Z,50.58
2023-05-18T18:41:58.436Z,50.09
2023-05-18T18:44:24.853Z,50.53
2023-05-18T18:46:51.574Z,50.54
2023-05-18T18:49:18.103Z,50.79
2023-05-18T18:51:46.494Z,50.51
2023-05-18T18:54:12.889Z,50.12
2023-05-18T18:56:39.349Z,50.22
2023-05-18T18:59:05.756Z,50.52
2023-05-18T19:01:32.354Z,50.55
2023-05-18T19:03:58.928Z,50.38
2023-05-18T19:06:26.059Z,50.58
2023-05-18T19:08:53.280Z,50.14
2023-05-18T19:11:21.862Z,50.83
2023-05-18T19:13:48.393Z,50.80
2023-05-18T19:16:17.316Z,50.30
2023-05-18T19:18:44.610Z,50.17
2023-05-18T19:21:11.453Z,50.75
2023-05-18T19:23:37.913Z,50.43
2023-05-18T19:26:04.372Z,50.46
2023-05-18T19:28:31.103Z,50.67
2023-05-18T19:30:57.562Z,50.88
2023-05-18T19:33:23.992Z,50.85
2023-05-18T19:35:51.795Z,50.60
2023-05-18T19:38:18.232Z,50.55
2023-05-18T19:40:44.611Z,50.49
2023-05-18T19:43:11.333Z,50.89
2023-05-18T19:45:37.827Z,51.15
2023-05-18T19:48:04.498Z,50.83
2023-05-18T19:50:31.167Z,50.78
2023-05-18T19:52:57.608Z,51.35
2023-05-18T19:55:24.142Z,50.40
2023-05-18T19:57:50.637Z,50.45
2023-05-18T20:00:17.336Z,50.55
2023-05-18T20:02:43.799Z,51.12
2023-05-18T20:05:12.626Z,51.26
2023-05-18T20:07:39.395Z,50.81
2023-05-18T20:10:06.641Z,50.88
2023-05-18T20:12:33.149Z,50.79
2023-05-18T20:14:59.644Z,50.90
2023-05-18T20:17:26.401Z,50.46
2023-05-18T20:19:53.390Z,50.75
2023-05-18T20:22:20.174Z,50.91
2023-05-18T20:24:46.607Z,51.18
2023-05-18T20:27:16.537Z,51.65
2023-05-18T20:29:43.026Z,51.38
2023-05-18T20:32:09.675Z,51.31
2023-05-18T20:34:36.652Z,50.97
2023-05-18T20:37:03.511Z,51.48
2023-05-18T20:39:30.422Z,51.61
2023-05-18T20:41:58.551Z,51.77
2023-05-18T20:44:27.758Z,51.58
2023-05-18T20:46:54.284Z,50.97
2023-05-18T20:49:26.837Z,51.54
2023-05-18T20:51:53.293Z,51.59
2023-05-18T20:54:21.216Z,51.67
2023-05-18T20:56:47.862Z,52.33
2023-05-18T20:59:16.127Z,51.88
2023-05-18T21:01:43.974Z,51.67
2023-05-18T21:04:12.791Z,52.02
2023-05-18T21:06:40.724Z,52.13
2023-05-18T21:09:08.024Z,52.19
2023-05-18T21:11:34.643Z,52.18
2023-05-18T21:14:01.155Z,52.32
2023-05-18T21:16:27.788Z,52.21
2023-05-18T21:18:54.304Z,52.40
2023-05-18T21:21:20.882Z,52.92
2023-05-18T21:23:47.386Z,52.96
2023-05-18T21:26:13.875Z,52.68
2023-05-18T21:28:40.294Z,53.37
2023-05-18T21:31:06.805Z,53.53
2023-05-18T21:33:34.252Z,53.84
2023-05-18T21:36:01.666Z,53.75
2023-05-18T21:38:28.398Z,53.94
2023-05-18T21:40:58.015Z,54.01
2023-05-18T21:43:24.501Z,53.90
2023-05-18T21:45:51.067Z,53.83
2023-05-18T21:48:17.542Z,53.70
2023-05-18T21:50:44.193Z,53.53
2023-05-18T21:53:10.618Z,53.99
2023-05-18T21:55:37.188Z,54.49
2023-05-18T21:58:03.685Z,53.82
2023-05-18T22:00:30.526Z,54.15
2023-05-18T22:02:58.413Z,53.76
2023-05-18T22:05:25.032Z,54.30
2023-05-18T22:07:52.197Z,54.11
2023-05-18T22:10:19.102Z,54.10
2023-05-18T22:12:45.550Z,54.08
2023-05-18T22:15:12.509Z,53.80
2023-05-18T22:17:39.659Z,53.62
2023-05-18T22:20:08.814Z,53.40
2023-05-18T22:22:35.445Z,53.36
2023-05-18T22:25:02.101Z,53.63
2023-05-18T22:27:28.502Z,52.79
2023-05-18T22:29:55.402Z,52.97
2023-05-18T22:32:22.067Z,53.44
2023-05-18T22:34:48.697Z,53.17
2023-05-18T22:37:15.084Z,53.05
2023-05-18T22:39:41.461Z,53.03
2023-05-18T22:42:07.851Z,52.97
2023-05-18T22:44:34.282Z,52.73
2023-05-18T22:47:00.672Z,52.93
2023-05-18T22:49:27.085Z,52.63
2023-05-18T22:51:53.620Z,54.10
2023-05-18T22:54:20.037Z,53.61
2023-05-18T22:56:46.444Z,53.95
2023-05-18T22:59:12.871Z,53.66
2023-05-18T23:01:39.452Z,53.49
2023-05-18T23:04:06.281Z,53.73
2023-05-18T23:06:32.816Z,53.49
2023-05-18T23:09:00.418Z,53.05
2023-05-18T23:11:28.341Z,53.43
2023-05-18T23:13:54.883Z,55.20
2023-05-18T23:16:22.548Z,54.75
2023-05-18T23:18:50.571Z,54.09
2023-05-18T23:21:17.045Z,54.13
2023-05-18T23:23:45.536Z,54.77
2023-05-18T23:26:12.484Z,54.96
2023-05-18T23:28:39.003Z,54.44
2023-05-18T23:31:05.497Z,55.09
2023-05-18T23:33:32.397Z,55.17
2023-05-18T23:36:02.679Z,54.74
2023-05-18T23:38:34.613Z,54.76
2023-05-18T23:41:05.150Z,55.71
2023-05-18T23:43:31.896Z,55.67
2023-05-18T23:45:59.686Z,55.44
2023-05-18T23:48:27.704Z,55.94
2023-05-18T23:51:00.264Z,55.85
2023-05-18T23:53:28.200Z,55.58
2023-05-18T23:55:57.388Z,55.49
2023-05-18T23:58:28.151Z,55.73
